createdAt,value
2024-02-24T00:00:21.745Z,9.95
2024-02-24T00:02:49.426Z,9.92
2024-02-24T00:05:16.948Z,9.96
2024-02-24T00:07:44.399Z,9.89
2024-02-24T00:10:13.210Z,9.91
2024-02-24T00:12:40.726Z,9.77
2024-02-24T00:15:09.011Z,9.79
2024-02-24T00:17:37.920Z,9.82
2024-02-24T00:20:06.968Z,9.94
2024-02-24T00:22:36.902Z,9.96
2024-02-24T00:25:04.933Z,9.91
2024-02-24T00:27:32.319Z,9.93
2024-02-24T00:29:59.890Z,9.99
2024-02-24T00:32:29.354Z,9.98
2024-02-24T00:34:58.009Z,9.97
2024-02-24T00:37:25.749Z,9.99
2024-02-24T00:39:54.045Z,9.97
2024-02-24T00:42:21.469Z,9.99
2024-02-24T00:44:48.913Z,10.06
2024-02-24T00:47:16.666Z,10.03
2024-02-24T00:49:44.095Z,10.16
2024-02-24T00:52:11.552Z,10.07
2024-02-24T00:54:39.259Z,9.99
2024-02-24T00:57:06.876Z,10.13
2024-02-24T00:59:34.329Z,10.16
2024-02-24T01:02:02.119Z,10.12
2024-02-24T01:04:30.756Z,10.20
2024-02-24T01:06:59.285Z,10.16
2024-02-24T01:09:27.240Z,10.12
2024-02-24T01:11:54.797Z,10.02
2024-02-24T01:14:22.355Z,10.06
2024-02-24T01:16:50.098Z,9.97
2024-02-24T01:19:18.659Z,10.00
2024-02-24T01:21:46.141Z,9.98
2024-02-24T01:24:14.557Z,9.83
2024-02-24T01:26:42.353Z,9.79
2024-02-24T01:29:09.803Z,9.90
2024-02-24T01:31:37.004Z,9.96
2024-02-24T01:34:04.599Z,9.75
2024-02-24T01:36:32.881Z,9.78
2024-02-24T01:39:00.609Z,9.70
2024-02-24T01:41:31.927Z,9.77
2024-02-24T01:44:01.322Z,9.95
2024-02-24T01:46:29.487Z,9.98
2024-02-24T01:48:56.608Z,9.98
2024-02-24T01:51:23.548Z,9.90
2024-02-24T01:53:50.954Z,9.86
2024-02-24T01:56:19.125Z,9.90
2024-02-24T01:58:46.381Z,9.83
2024-02-24T02:01:13.361Z,9.91
2024-02-24T02:03:40.587Z,9.80
2024-02-24T02:06:09.067Z,9.68
2024-02-24T02:08:36.365Z,9.73
2024-02-24T02:11:04.172Z,9.61
2024-02-24T02:13:32.478Z,9.63
2024-02-24T02:16:00.395Z,9.63
2024-02-24T02:18:28.987Z,9.62
2024-02-24T02:20:58.358Z,9.55
2024-02-24T02:23:25.442Z,9.49
2024-02-24T02:25:52.613Z,9.45
2024-02-24T02:28:19.549Z,9.37
2024-02-24T02:30:48.331Z,9.43
2024-02-24T02:33:15.748Z,9.43
2024-02-24T02:35:42.825Z,9.47
2024-02-24T02:38:11.500Z,9.39
2024-02-24T02:40:38.788Z,9.46
2024-02-24T02:43:06.335Z,9.24
2024-02-24T02:45:34.276Z,9.37
2024-02-24T02:48:01.617Z,9.21
2024-02-24T02:50:30.476Z,8.98
2024-02-24T02:52:57.616Z,8.98
2024-02-24T02:55:25.314Z,9.03
2024-02-24T02:57:52.244Z,9.02
2024-02-24T03:00:19.402Z,9.13
2024-02-24T03:02:47.836Z,9.19
2024-02-24T03:05:17.169Z,9.22
2024-02-24T03:07:46.265Z,9.18
2024-02-24T03:10:13.776Z,9.23
2024-02-24T03:12:40.879Z,9.30
2024-02-24T03:15:09.180Z,9.28
2024-02-24T03:17:36.522Z,9.17
2024-02-24T03:20:04.822Z,9.20
2024-02-24T03:22:34.015Z,9.14
2024-02-24T03:25:01.290Z,8.97
2024-02-24T03:27:29.255Z,8.95
2024-02-24T03:29:56.165Z,8.97
2024-02-24T03:32:23.427Z,8.86
2024-02-24T03:34:52.296Z,8.93
2024-02-24T03:37:19.748Z,8.93
2024-02-24T03:39:46.912Z,8.99
2024-02-24T03:42:14.358Z,8.99
2024-02-24T03:44:41.905Z,8.96
2024-02-24T03:47:09.232Z,8.91
2024-02-24T03:49:37.857Z,8.89
2024-02-24T03:52:06.420Z,8.87
2024-02-24T03:54:35.535Z,8.82
2024-02-24T03:57:02.990Z,8.79
2024-02-24T03:59:30.042Z,8.80
2024-02-24T04:01:57.352Z,8.83
2024-02-24T04:04:26.033Z,8.80
2024-02-24T04:06:56.423Z,8.78
2024-02-24T04:09:23.378Z,8.80
2024-02-24T04:11:53.381Z,8.78
2024-02-24T04:14:21.021Z,8.64
2024-02-24T04:16:48.209Z,8.49
2024-02-24T04:19:16.025Z,8.46
2024-02-24T04:21:43.026Z,8.47
2024-02-24T04:24:10.526Z,8.53
2024-02-24T04:26:37.723Z,8.55
2024-02-24T04:29:05.149Z,8.65
2024-02-24T04:31:32.804Z,8.54
2024-02-24T04:34:00.254Z,8.60
2024-02-24T04:36:29.075Z,8.53
2024-02-24T04:38:56.499Z,8.62
2024-02-24T04:41:23.702Z,8.59
2024-02-24T04:43:51.145Z,8.73
2024-02-24T04:46:19.453Z,8.74
2024-02-24T04:48:47.188Z,8.60
2024-02-24T04:51:14.680Z,8.55
2024-02-24T04:53:42.132Z,8.35
2024-02-24T04:56:12.684Z,8.43
2024-02-24T04:58:39.674Z,8.45
2024-02-24T05:01:06.624Z,8.37
2024-02-24T05:03:35.518Z,8.35
2024-02-24T05:06:02.546Z,8.34
2024-02-24T05:08:30.109Z,8.41
2024-02-24T05:10:59.626Z,8.45
2024-02-24T05:13:27.255Z,8.32
2024-02-24T05:15:54.318Z,8.35
2024-02-24T05:18:22.141Z,8.30
2024-02-24T05:20:49.521Z,8.32
2024-02-24T05:23:17.434Z,8.32
2024-02-24T05:25:49.514Z,8.35
2024-02-24T05:28:16.637Z,8.40
2024-02-24T05:30:43.633Z,8.51
2024-02-24T05:33:11.503Z,8.50
2024-02-24T05:35:39.047Z,8.40
2024-02-24T05:38:08.652Z,8.34
2024-02-24T05:40:36.445Z,8.32
2024-02-24T05:43:04.274Z,8.25
2024-02-24T05:45:31.719Z,8.19
2024-02-24T05:47:59.040Z,8.17
2024-02-24T05:50:26.548Z,8.14
2024-02-24T05:52:54.039Z,8.16
2024-02-24T05:55:22.068Z,8.12
2024-02-24T05:57:49.513Z,8.08
2024-02-24T06:00:17.738Z,8.06
2024-02-24T06:02:44.998Z,7.95
2024-02-24T06:05:15.893Z,7.95
2024-02-24T06:07:43.449Z,7.95
2024-02-24T06:10:17.003Z,7.97
2024-02-24T06:12:44.394Z,8.05
2024-02-24T06:15:12.795Z,8.10
2024-02-24T06:17:43.205Z,8.16
2024-02-24T06:20:11.167Z,8.17
2024-02-24T06:22:38.532Z,8.15
2024-02-24T06:25:07.629Z,8.09
2024-02-24T06:27:34.642Z,8.03
2024-02-24T06:30:02.438Z,8.01
2024-02-24T06:32:30.056Z,7.97
2024-02-24T06:34:57.200Z,7.91
2024-02-24T06:37:26.874Z,7.93
2024-02-24T06:39:58.888Z,7.88
2024-02-24T06:42:26.024Z,7.85
2024-02-24T06:44:52.997Z,7.90
2024-02-24T06:47:28.387Z,7.98
2024-02-24T06:49:56.615Z,7.99
2024-02-24T06:52:24.347Z,7.97
2024-02-24T06:54:52.880Z,8.04
2024-02-24T06:57:20.620Z,8.12
2024-02-24T06:59:48.233Z,8.16
2024-02-24T07:02:17.030Z,8.11
2024-02-24T07:04:45.547Z,8.11
2024-02-24T07:07:14.779Z,8.11
2024-02-24T07:09:45.000Z,8.14
2024-02-24T07:12:14.166Z,8.26
2024-02-24T07:14:44.217Z,8.31
2024-02-24T07:17:11.546Z,8.38
2024-02-24T07:19:41.032Z,8.38
2024-02-24T07:22:08.495Z,8.34
2024-02-24T07:24:35.929Z,8.41
2024-02-24T07:27:03.933Z,8.55
2024-02-24T07:29:32.599Z,8.67
2024-02-24T07:32:01.409Z,8.81
2024-02-24T07:34:29.311Z,8.92
2024-02-24T07:36:56.324Z,9.05
2024-02-24T07:39:23.874Z,9.20
2024-02-24T07:41:51.076Z,9.30
2024-02-24T07:44:19.964Z,9.51
2024-02-24T07:46:48.274Z,9.71
2024-02-24T07:49:15.501Z,9.79
2024-02-24T07:51:53.405Z,10.02
2024-02-24T07:54:24.849Z,10.22
2024-02-24T07:56:53.034Z,10.45
2024-02-24T07:59:20.830Z,10.56
2024-02-24T08:01:48.314Z,10.55
2024-02-24T08:04:16.401Z,10.54
2024-02-24T08:06:44.982Z,10.67
2024-02-24T08:09:12.445Z,10.68
2024-02-24T08:11:41.870Z,10.92
2024-02-24T08:14:10.150Z,11.05
2024-02-24T08:16:37.621Z,10.90
2024-02-24T08:19:07.993Z,10.85
2024-02-24T08:21:38.551Z,10.82
2024-02-24T08:24:11.113Z,10.94
2024-02-24T08:26:41.192Z,10.97
2024-02-24T08:29:12.951Z,11.11
2024-02-24T08:31:40.239Z,11.26
2024-02-24T08:34:08.379Z,11.56
2024-02-24T08:36:36.598Z,11.82
2024-02-24T08:39:05.540Z,11.88
2024-02-24T08:41:34.811Z,11.88
2024-02-24T08:44:05.495Z,11.97
2024-02-24T08:46:37.211Z,12.13
2024-02-24T08:49:06.224Z,12.16
2024-02-24T08:51:34.273Z,12.32
2024-02-24T08:54:01.702Z,12.31
2024-02-24T08:56:32.769Z,12.48
2024-02-24T08:59:02.025Z,12.53
2024-02-24T09:01:31.522Z,12.58
2024-02-24T09:04:01.103Z,12.77
2024-02-24T09:06:29.595Z,12.89
2024-02-24T09:08:57.132Z,12.84
2024-02-24T09:11:26.864Z,12.92
2024-02-24T09:14:00.102Z,13.12
2024-02-24T09:16:27.826Z,13.21
2024-02-24T09:18:54.921Z,13.20
2024-02-24T09:21:22.604Z,13.29
2024-02-24T09:23:50.468Z,13.18
2024-02-24T09:26:18.072Z,13.30
2024-02-24T09:28:45.555Z,13.44
2024-02-24T09:31:13.427Z,13.55
2024-02-24T09:33:40.926Z,13.61
2024-02-24T09:36:09.082Z,13.59
2024-02-24T09:38:38.286Z,13.82
2024-02-24T09:41:11.756Z,13.85
2024-02-24T09:43:39.124Z,14.09
2024-02-24T09:46:06.960Z,14.10
2024-02-24T09:48:34.048Z,14.12
2024-02-24T09:51:01.436Z,14.14
2024-02-24T09:53:28.947Z,14.07
2024-02-24T09:55:57.968Z,14.11
2024-02-24T09:58:26.143Z,14.16
2024-02-24T10:00:53.659Z,14.02
2024-02-24T10:03:23.233Z,14.19
2024-02-24T10:05:51.139Z,14.29
2024-02-24T10:08:21.609Z,14.23
2024-02-24T10:10:48.828Z,14.33
2024-02-24T10:13:20.624Z,14.30
2024-02-24T10:15:47.706Z,14.33
2024-02-24T10:18:19.321Z,14.21
2024-02-24T10:20:46.475Z,14.20
2024-02-24T10:23:14.251Z,14.20
2024-02-24T10:25:42.350Z,14.16
2024-02-24T10:28:11.796Z,14.11
2024-02-24T10:30:40.240Z,14.34
2024-02-24T10:33:07.548Z,14.37
2024-02-24T10:35:35.711Z,14.40
2024-02-24T10:38:17.733Z,14.61
2024-02-24T10:40:53.526Z,14.66
2024-02-24T10:43:21.914Z,14.78
2024-02-24T10:45:49.319Z,14.82
2024-02-24T10:48:22.247Z,15.04
2024-02-24T10:50:52.454Z,15.04
2024-02-24T10:53:28.470Z,15.00
2024-02-24T10:55:57.957Z,15.12
2024-02-24T10:58:26.903Z,14.95
2024-02-24T11:00:56.086Z,14.83
2024-02-24T11:03:24.262Z,14.50
2024-02-24T11:05:52.324Z,14.61
2024-02-24T11:08:36.318Z,14.63
2024-02-24T11:11:05.241Z,14.69
2024-02-24T11:13:33.547Z,14.79
2024-02-24T11:16:01.134Z,14.79
2024-02-24T11:18:50.847Z,14.77
2024-02-24T11:21:18.581Z,14.65
2024-02-24T11:23:49.177Z,14.70
2024-02-24T11:26:22.987Z,14.71
2024-02-24T11:29:04.733Z,14.57
2024-02-24T11:31:43.312Z,14.55
2024-02-24T11:34:13.719Z,14.62
2024-02-24T11:36:48.128Z,14.52
2024-02-24T11:39:16.825Z,14.35
2024-02-24T11:41:44.604Z,14.57
2024-02-24T11:44:12.556Z,14.69
2024-02-24T11:46:41.946Z,14.80
2024-02-24T11:49:11.631Z,14.75
2024-02-24T11:51:40.386Z,14.70
2024-02-24T11:54:09.881Z,14.57
2024-02-24T11:56:38.512Z,14.74
2024-02-24T11:59:07.930Z,14.89
2024-02-24T12:01:38.534Z,15.05
2024-02-24T12:04:10.424Z,14.98
2024-02-24T12:06:39.064Z,14.94
2024-02-24T12:09:08.028Z,14.95
2024-02-24T12:11:38.414Z,14.81
2024-02-24T12:14:07.243Z,14.70
2024-02-24T12:16:35.310Z,14.89
2024-02-24T12:19:05.682Z,14.96
2024-02-24T12:21:33.232Z,15.16
2024-02-24T12:24:01.080Z,15.14
2024-02-24T12:26:29.209Z,15.06
2024-02-24T12:28:57.832Z,15.38
2024-02-24T12:31:25.627Z,15.22
2024-02-24T12:33:52.631Z,15.04
2024-02-24T12:36:20.160Z,15.17
2024-02-24T12:38:49.411Z,15.19
2024-02-24T12:41:16.449Z,15.34
2024-02-24T12:43:44.542Z,15.36
2024-02-24T12:46:11.791Z,15.26
2024-02-24T12:48:43.621Z,15.26
2024-02-24T12:51:12.957Z,15.17
2024-02-24T12:53:42.708Z,15.38
2024-02-24T12:56:14.669Z,15.45
2024-02-24T12:58:45.012Z,15.40
2024-02-24T13:01:14.511Z,15.05
2024-02-24T13:03:42.332Z,15.08
2024-02-24T13:06:10.437Z,14.95
2024-02-24T13:08:37.506Z,14.99
2024-02-24T13:11:05.099Z,15.07
2024-02-24T13:13:41.151Z,15.07
2024-02-24T13:16:08.922Z,14.91
2024-02-24T13:18:37.012Z,14.85
2024-02-24T13:21:06.724Z,14.85
2024-02-24T13:23:33.967Z,15.02
2024-02-24T13:26:02.532Z,14.96
2024-02-24T13:28:31.812Z,14.91
2024-02-24T13:30:59.510Z,15.00
2024-02-24T13:33:29.258Z,15.00
2024-02-24T13:35:56.314Z,14.94
2024-02-24T13:38:23.594Z,14.86
2024-02-24T13:40:52.599Z,14.90
2024-02-24T13:43:19.825Z,14.84
2024-02-24T13:45:47.211Z,14.94
2024-02-24T13:48:14.328Z,14.94
2024-02-24T13:50:43.698Z,14.92
2024-02-24T13:53:12.657Z,14.86
2024-02-24T13:55:39.822Z,14.75
2024-02-24T13:58:07.896Z,14.76
2024-02-24T14:00:35.185Z,14.54
2024-02-24T14:03:03.773Z,14.62
2024-02-24T14:05:31.037Z,14.66
2024-02-24T14:07:59.600Z,14.65
2024-02-24T14:10:26.779Z,14.59
2024-02-24T14:12:55.850Z,14.51
2024-02-24T14:15:23.160Z,14.34
2024-02-24T14:17:50.841Z,14.26
2024-02-24T14:20:23.258Z,14.20
2024-02-24T14:23:00.577Z,14.17
2024-02-24T14:25:31.291Z,14.15
2024-02-24T14:28:00.787Z,14.14
2024-02-24T14:30:28.237Z,13.97
2024-02-24T14:33:03.836Z,13.88
2024-02-24T14:35:33.445Z,13.87
2024-02-24T14:38:04.381Z,13.80
2024-02-24T14:40:31.582Z,13.87
2024-02-24T14:42:59.310Z,13.76
2024-02-24T14:45:26.753Z,13.59
2024-02-24T14:47:55.948Z,13.64
2024-02-24T14:50:23.594Z,13.50
2024-02-24T14:52:51.068Z,13.51
2024-02-24T14:55:19.751Z,13.45
2024-02-24T14:57:47.583Z,13.55
2024-02-24T15:00:16.059Z,13.56
2024-02-24T15:02:52.748Z,13.52
2024-02-24T15:05:31.815Z,13.55
2024-02-24T15:08:03.188Z,13.47
2024-02-24T15:10:30.716Z,13.43
2024-02-24T15:12:58.175Z,13.39
2024-02-24T15:15:27.782Z,13.37
2024-02-24T15:18:14.621Z,13.30
2024-02-24T15:20:41.885Z,13.16
2024-02-24T15:23:08.881Z,13.05
2024-02-24T15:25:36.786Z,12.96
2024-02-24T15:28:04.204Z,12.81
2024-02-24T15:30:31.119Z,12.81
2024-02-24T15:33:06.240Z,12.74
2024-02-24T15:35:33.485Z,12.59
2024-02-24T15:38:00.404Z,12.51
2024-02-24T15:40:29.523Z,12.44
2024-02-24T15:42:58.534Z,12.35
2024-02-24T15:45:26.063Z,12.31
2024-02-24T15:47:53.119Z,12.16
2024-02-24T15:50:23.072Z,11.93
2024-02-24T15:52:51.728Z,11.85
2024-02-24T15:55:20.078Z,11.81
2024-02-24T15:57:49.078Z,11.70
2024-02-24T16:00:17.200Z,11.70
2024-02-24T16:02:45.114Z,11.70
2024-02-24T16:05:12.248Z,11.70
2024-02-24T16:07:42.581Z,11.65
2024-02-24T16:10:10.494Z,11.49
2024-02-24T16:12:39.682Z,11.34
2024-02-24T16:15:09.886Z,11.44
2024-02-24T16:17:38.231Z,11.44
2024-02-24T16:20:06.393Z,11.42
2024-02-24T16:22:42.387Z,11.44
2024-02-24T16:25:14.025Z,11.37
2024-02-24T16:27:41.513Z,11.23
2024-02-24T16:30:09.536Z,10.97
2024-02-24T16:32:38.338Z,10.97
2024-02-24T16:35:06.696Z,10.70
2024-02-24T16:37:34.171Z,10.63
2024-02-24T16:40:01.377Z,10.69
2024-02-24T16:42:29.473Z,10.73
2024-02-24T16:45:00.251Z,10.50
2024-02-24T16:47:27.655Z,10.46
2024-02-24T16:49:54.764Z,10.43
2024-02-24T16:52:24.245Z,10.50
2024-02-24T16:54:51.488Z,10.39
2024-02-24T16:57:18.497Z,10.37
2024-02-24T16:59:45.514Z,10.35
2024-02-24T17:02:12.748Z,10.41
2024-02-24T17:04:40.758Z,10.41
2024-02-24T17:07:08.785Z,10.34
2024-02-24T17:09:35.987Z,10.35
2024-02-24T17:12:03.959Z,10.30
2024-02-24T17:14:31.501Z,10.29
2024-02-24T17:16:58.693Z,10.21
2024-02-24T17:19:27.667Z,10.02
2024-02-24T17:21:56.131Z,9.97
2024-02-24T17:24:23.465Z,10.02
2024-02-24T17:26:55.787Z,10.01
2024-02-24T17:29:23.402Z,9.90
2024-02-24T17:31:52.307Z,9.84
2024-02-24T17:34:20.654Z,9.82
2024-02-24T17:36:49.959Z,9.82
2024-02-24T17:39:17.472Z,9.89
2024-02-24T17:41:49.224Z,9.89
2024-02-24T17:44:18.386Z,9.93
2024-02-24T17:46:45.365Z,9.90
2024-02-24T17:49:14.285Z,9.84
2024-02-24T17:51:41.657Z,9.80
2024-02-24T17:54:09.229Z,9.79
2024-02-24T17:56:43.596Z,9.74
2024-02-24T17:59:11.344Z,9.69
2024-02-24T18:01:39.663Z,9.72
2024-02-24T18:04:08.463Z,9.62
2024-02-24T18:06:35.610Z,9.64
2024-02-24T18:09:06.622Z,9.60
2024-02-24T18:11:35.332Z,9.58
2024-02-24T18:14:02.792Z,9.66
2024-02-24T18:16:31.546Z,9.69
2024-02-24T18:18:59.303Z,9.61
2024-02-24T18:21:26.306Z,9.64
2024-02-24T18:23:53.832Z,9.62
2024-02-24T18:26:21.206Z,9.49
2024-02-24T18:28:48.816Z,9.41
2024-02-24T18:31:15.704Z,9.46
2024-02-24T18:33:45.544Z,9.34
2024-02-24T18:36:13.070Z,9.26
2024-02-24T18:38:40.104Z,9.23
2024-02-24T18:41:08.638Z,9.18
2024-02-24T18:43:35.554Z,9.14
2024-02-24T18:46:04.044Z,9.13
2024-02-24T18:48:31.885Z,9.10
2024-02-24T18:51:00.886Z,9.11
2024-02-24T18:53:32.438Z,9.08
2024-02-24T18:56:19.983Z,9.02
2024-02-24T18:58:47.442Z,8.96
2024-02-24T19:01:14.632Z,9.02
2024-02-24T19:03:42.168Z,8.92
2024-02-24T19:06:09.987Z,8.90
2024-02-24T19:08:40.956Z,8.87
2024-02-24T19:11:17.372Z,8.91
2024-02-24T19:13:44.614Z,8.94
2024-02-24T19:16:11.750Z,8.91
2024-02-24T19:18:39.065Z,8.89
2024-02-24T19:21:08.378Z,8.90
2024-02-24T19:23:38.017Z,8.95
2024-02-24T19:26:09.060Z,8.82
2024-02-24T19:28:36.236Z,8.89
2024-02-24T19:31:03.267Z,8.76
2024-02-24T19:33:30.479Z,8.74
2024-02-24T19:35:58.117Z,8.72
2024-02-24T19:38:25.179Z,8.74
2024-02-24T19:40:52.144Z,8.84
2024-02-24T19:43:19.420Z,8.82
2024-02-24T19:45:47.684Z,8.80
2024-02-24T19:48:15.307Z,8.75
2024-02-24T19:50:48.476Z,8.80
2024-02-24T19:53:15.451Z,8.82
2024-02-24T19:55:42.818Z,8.85
2024-02-24T19:58:21.275Z,8.75
2024-02-24T20:00:58.096Z,8.70
2024-02-24T20:03:26.266Z,8.60
2024-02-24T20:05:53.092Z,8.60
2024-02-24T20:08:20.057Z,8.60
2024-02-24T20:10:47.142Z,8.55
2024-02-24T20:13:17.033Z,8.48
2024-02-24T20:15:44.011Z,8.38
2024-02-24T20:18:12.128Z,8.46
2024-02-24T20:20:39.548Z,8.39
2024-02-24T20:23:08.951Z,8.39
2024-02-24T20:25:36.360Z,8.38
2024-02-24T20:28:04.889Z,8.40
2024-02-24T20:30:32.321Z,8.37
2024-02-24T20:32:59.803Z,8.35
2024-02-24T20:35:30.020Z,8.29
2024-02-24T20:37:57.582Z,8.21
2024-02-24T20:40:26.933Z,8.23
2024-02-24T20:42:59.736Z,8.23
2024-02-24T20:45:27.071Z,8.23
2024-02-24T20:47:53.941Z,8.22
2024-02-24T20:50:23.106Z,8.19
2024-02-24T20:52:50.625Z,8.19
2024-02-24T20:55:17.601Z,8.17
2024-02-24T20:57:45.779Z,8.16
2024-02-24T21:00:13.702Z,8.20
2024-02-24T21:02:41.748Z,8.23
2024-02-24T21:05:09.586Z,8.19
2024-02-24T21:07:38.810Z,8.16
2024-02-24T21:10:08.118Z,8.14
2024-02-24T21:12:35.756Z,8.10
2024-02-24T21:15:02.692Z,8.12
2024-02-24T21:17:31.083Z,8.12
2024-02-24T21:20:04.466Z,8.12
2024-02-24T21:22:35.172Z,8.11
2024-02-24T21:25:02.584Z,8.06
2024-02-24T21:27:30.090Z,8.02
2024-02-24T21:29:56.951Z,8.02
2024-02-24T21:32:24.323Z,8.02
2024-02-24T21:34:51.243Z,7.98
2024-02-24T21:37:21.850Z,7.95
2024-02-24T21:39:49.365Z,7.94
2024-02-24T21:42:18.569Z,7.93
2024-02-24T21:44:45.382Z,7.89
2024-02-24T21:47:14.316Z,7.87
2024-02-24T21:49:41.429Z,7.88
2024-02-24T21:52:11.120Z,7.87
2024-02-24T21:54:37.896Z,7.88
2024-02-24T21:57:04.917Z,7.88
2024-02-24T21:59:31.781Z,7.86
2024-02-24T22:02:00.627Z,7.83
2024-02-24T22:04:31.543Z,7.78
2024-02-24T22:06:58.594Z,7.73
2024-02-24T22:09:25.596Z,7.64
2024-02-24T22:11:52.896Z,7.60
2024-02-24T22:14:22.955Z,7.58
2024-02-24T22:16:50.426Z,7.58
2024-02-24T22:19:19.143Z,7.60
2024-02-24T22:21:46.645Z,7.59
2024-02-24T22:24:13.648Z,7.64
2024-02-24T22:26:46.721Z,7.63
2024-02-24T22:29:13.885Z,7.64
2024-02-24T22:31:42.602Z,7.68
2024-02-24T22:34:09.582Z,7.65
2024-02-24T22:36:36.609Z,7.50
2024-02-24T22:39:06.350Z,7.62
2024-02-24T22:41:34.149Z,7.68
2024-02-24T22:44:01.155Z,7.91
2024-02-24T22:46:31.598Z,7.89
2024-02-24T22:48:58.949Z,7.97
2024-02-24T22:51:27.138Z,8.00
2024-02-24T22:53:54.933Z,7.81
2024-02-24T22:56:25.279Z,7.59
2024-02-24T22:58:56.114Z,7.69
2024-02-24T23:04:54.205Z,7.62
2024-02-24T23:07:21.451Z,7.63
2024-02-24T23:09:49.997Z,7.62
2024-02-24T23:12:19.530Z,7.66
2024-02-24T23:14:47.400Z,7.67
2024-02-24T23:17:18.146Z,7.68
2024-02-24T23:19:45.924Z,7.69
2024-02-24T23:22:21.255Z,7.64
2024-02-24T23:24:48.691Z,7.67
2024-02-24T23:27:16.840Z,7.64
2024-02-24T23:29:44.293Z,7.67
2024-02-24T23:32:12.303Z,7.67
2024-02-24T23:34:40.268Z,7.63
2024-02-24T23:37:07.841Z,7.59
2024-02-24T23:39:35.233Z,7.62
2024-02-24T23:42:03.127Z,7.61
2024-02-24T23:44:32.201Z,7.56
2024-02-24T23:46:59.714Z,7.53
2024-02-24T23:49:27.555Z,7.50
2024-02-24T23:51:55.027Z,7.44
2024-02-24T23:54:22.519Z,7.43
2024-02-24T23:56:50.229Z,7.43
2024-02-24T23:59:17.187Z,7.44
